Freedom — WYR2173 — position and weather

sailwx.info

Track history (hours):
 
Tides and Currents Weather Stations Pressure Air Temp Water Temp Dewpoint Dewpoint Depression Visibility Wind Speed Wind Dir Waves Ship Positions

Freedom

Owner: MASSACHUSETTS BAY LINES INC, BOSTON, MA. More information available from US FCC via Universal Licensing System and Coast Guard Vessel Documentation Center.

Last reported at 2018-Jun-19 14:56 UTC. Time now 2018-Jun-19 20:02 UTC.
Position N 42°21' W 071°03'.

Type: Passenger vessel. MMSI: 367377389.

Date/timePositionNaut miles runAvg speedWind from/ knotsBaromVisibWave heightAir tempDewpointWater temp
2018-Jun-19 14:56N 42°21' W 071°03'1 2.1
2018-Jun-19 14:31N 42°22' W 071°03'1 1.8
2018-Jun-19 14:00N 42°21' W 071°03'0 0.0
2018-Jun-19 13:30N 42°21' W 071°03'0 0.0
2018-Jun-19 13:01N 42°21' W 071°03'0 0.0
2018-Jun-19 12:30N 42°21' W 071°03'0 0.0
2018-Jun-18 00:59N 42°21' W 071°03'0 0.9
2018-Jun-18 00:30N 42°22' W 071°03'1 1.8
2018-Jun-18 00:00N 42°23' W 071°03'2 4.0
2018-Jun-17 23:30N 42°21' W 071°01'1 2.7
2018-Jun-17 23:00N 42°21' W 071°03'0 0.0
2018-Jun-17 22:30N 42°21' W 071°03'0 0.0
2018-Jun-17 22:00N 42°21' W 071°03'0 0.0
2018-Jun-17 14:14N 42°21' W 071°03'1 2.7
2018-Jun-17 14:00N 42°22' W 071°03'1 1.5
2018-Jun-17 13:30N 42°21' W 071°02'0 0.9
2018-Jun-17 13:00N 42°21' W 071°03'0 0.0
2018-Jun-17 12:30N 42°21' W 071°03'0 0.0
2018-Jun-17 04:53N 42°21' W 071°03'0 0.0
2018-Jun-17 04:30N 42°21' W 071°03'0 0.1
2018-Jun-17 04:00N 42°21' W 071°03'2 3.9
2018-Jun-17 03:30N 42°21' W 071°01'2 3.2
2018-Jun-17 03:00N 42°20' W 070°59'3 5.2
2018-Jun-17 02:30N 42°21' W 071°02'1 1.9
2018-Jun-17 02:00N 42°21' W 071°03'0 0.0
2018-Jun-17 01:30N 42°21' W 071°03'0 0.0
2018-Jun-17 01:00N 42°21' W 071°03'0 0.0
2018-Jun-17 00:30N 42°21' W 071°03'0 0.0
2018-Jun-17 00:00N 42°21' W 071°03'0 0.0
2018-Jun-16 23:31N 42°21' W 071°03'0 0.0
2018-Jun-16 23:00N 42°21' W 071°03'0 0.0
2018-Jun-16 22:31N 42°21' W 071°03'0 0.0
2018-Jun-16 22:00N 42°21' W 071°03'1 1.1
2018-Jun-16 21:30N 42°22' W 071°02'2 4.5
2018-Jun-16 21:00N 42°20' W 070°60'0 0.4
2018-Jun-16 20:30N 42°20' W 070°60'3 5.3
2018-Jun-16 20:00N 42°21' W 071°03'0 0.0
2018-Jun-16 19:30N 42°21' W 071°03'0 0.0
2018-Jun-16 19:00N 42°21' W 071°03'0 0.0
2018-Jun-16 18:30N 42°21' W 071°03'2 3.8
2018-Jun-16 18:00N 42°21' W 071°01'1 1.6
2018-Jun-16 17:30N 42°20' W 070°60'3 5.3
2018-Jun-16 17:00N 42°21' W 071°03'0 0.0
2018-Jun-16 16:30N 42°21' W 071°03'0 0.0
2018-Jun-16 16:00N 42°21' W 071°03'0 0.0
2018-Jun-16 15:30N 42°21' W 071°03'0 0.0
2018-Jun-16 15:00N 42°21' W 071°03'0 0.0
2018-Jun-16 14:30N 42°21' W 071°03'1 1.9
2018-Jun-16 14:00N 42°22' W 071°03'1 1.9
2018-Jun-16 13:31N 42°21' W 071°03'0 0.0
2018-Jun-16 13:00N 42°21' W 071°03'0 0.0
2018-Jun-16 05:00N 42°21' W 071°03'0 0.0
2018-Jun-16 04:30N 42°21' W 071°03'0 0.0
2018-Jun-16 04:00N 42°21' W 071°03'1 1.4
2018-Jun-16 03:30N 42°21' W 071°02'2 4.4
2018-Jun-16 03:01N 42°20' W 070°60'1 2.2
2018-Jun-16 02:31N 42°19' W 071°01'2 4.1
2018-Jun-16 02:00N 42°20' W 070°58'2 4.3
2018-Jun-16 01:30N 42°21' W 071°01'2 3.1
2018-Jun-16 01:00N 42°21' W 071°03'0 0.0
2018-Jun-16 00:30N 42°21' W 071°03'0 0.0
2018-Jun-16 00:00N 42°21' W 071°03'0 0.0
2018-Jun-15 23:30N 42°21' W 071°03'0 0.0
2018-Jun-15 23:00N 42°21' W 071°03'2 3.5
2018-Jun-15 22:31N 42°23' W 071°03'0 0.6
2018-Jun-15 22:00N 42°23' W 071°02'1 1.9
2018-Jun-15 21:30N 42°23' W 071°03'1 2.7
2018-Jun-15 21:01N 42°22' W 071°03'1 2.1
2018-Jun-15 20:31N 42°21' W 071°02'2 4.1
2018-Jun-15 20:00N 42°23' W 071°02'0 0.0
2018-Jun-15 19:30N 42°23' W 071°02'0 0.0
2018-Jun-15 19:00N 42°23' W 071°02'2 3.9
2018-Jun-15 18:30N 42°21' W 071°03'0 0.0
2018-Jun-15 18:00N 42°21' W 071°03'1 2.9
2018-Jun-15 17:31N 42°23' W 071°03'0 0.1
2018-Jun-15 17:00N 42°23' W 071°03'0 0.5
2018-Jun-15 16:31N 42°23' W 071°03'1 0.1
2018-Jun-15 02:54N 42°21' W 071°03'0 0.0
2018-Jun-15 02:30N 42°21' W 071°03'1 2.8
2018-Jun-15 02:00N 42°21' W 071°01'1 1.8
2018-Jun-15 01:31N 42°20' W 071°00'2 4.3
2018-Jun-15 01:00N 42°21' W 071°03'0 0.8
2018-Jun-15 00:30N 42°22' W 071°03'1 1.1
2018-Jun-15 00:00N 42°22' W 071°03'2 4.4
2018-Jun-14 23:30N 42°21' W 071°01'2 3.7
2018-Jun-14 23:00N 42°21' W 071°03'0 0.6
2018-Jun-14 22:30N 42°21' W 071°03'1 1.0
2018-Jun-14 22:01N 42°21' W 071°02'1 1.6
2018-Jun-14 21:30N 42°21' W 071°03'0 0.0
2018-Jun-14 21:01N 42°21' W 071°03'0 0.0
2018-Jun-14 20:31N 42°21' W 071°03'0 0.0
2018-Jun-14 20:00N 42°21' W 071°03'0 0.0
2018-Jun-14 19:30N 42°21' W 071°03'0 0.0
2018-Jun-14 14:38N 42°21' W 071°03'0 1.9
2018-Jun-14 14:30N 42°21' W 071°03'0 1.0
2018-Jun-14 14:00N 42°21' W 071°02'1 1.4
2018-Jun-14 13:30N 42°21' W 071°03'0 0.0
2018-Jun-14 13:00N 42°21' W 071°03'0 0.0
2018-Jun-14 12:31N 42°21' W 071°03'0 0.0
2018-Jun-13 14:19N 42°21' W 071°03'1 2.2
2018-Jun-13 14:00N 42°22' W 071°03'1 1.4
2018-Jun-13 13:30N 42°21' W 071°03'0 0.1
2018-Jun-13 13:00N 42°21' W 071°03'0 0.0
2018-Jun-13 12:30N 42°21' W 071°03'0 0.0
2018-Jun-11 18:42N 42°21' W 071°03'0 0.4
2018-Jun-11 18:30N 42°21' W 071°03'0 0.1
2018-Jun-11 18:00N 42°21' W 071°03'4 8.6
2018-Jun-11 17:30N 42°18' W 070°59'4 8.2
2018-Jun-11 17:01N 42°15' W 070°55'1 2.3
2018-Jun-11 16:30N 42°16' W 070°56'3 5.8
2018-Jun-11 16:00N 42°19' W 070°56'0 0.9
2018-Jun-11 15:30N 42°20' W 070°56'0 0.0
2018-Jun-11 15:00N 42°20' W 070°56'0 0.0
2018-Jun-11 14:31N 42°20' W 070°56'0 0.9
2018-Jun-11 14:00N 42°19' W 070°56'3 6.0
2018-Jun-11 13:30N 42°16' W 070°56'1 2.1
2018-Jun-11 13:00N 42°15' W 070°55'0 0.0
2018-Jun-11 12:30N 42°15' W 070°55'1 1.3
2018-Jun-11 12:00N 42°16' W 070°55'5 9.1
2018-Jun-11 11:30N 42°19' W 070°60'3 6.7
2018-Jun-11 11:00N 42°21' W 071°03'0 0.0
2018-Jun-11 10:30N 42°21' W 071°03'0 0.0
2018-Jun-11 02:16N 42°21' W 071°03'0 0.0
2018-Jun-11 02:00N 42°21' W 071°03'1 1.4
2018-Jun-11 01:31N 42°21' W 071°02'1 2.0
2018-Jun-11 01:01N 42°22' W 071°03'3 6.0
2018-Jun-11 00:30N 42°20' W 070°60'0 0.6
2018-Jun-11 00:01N 42°20' W 070°59'2 4.5
2018-Jun-10 23:30N 42°21' W 071°02'1 1.6
2018-Jun-10 23:01N 42°21' W 071°03'0 0.0
2018-Jun-10 22:30N 42°21' W 071°03'0 0.0
2018-Jun-10 22:00N 42°21' W 071°03'0 0.0
2018-Jun-10 14:07N 42°21' W 071°03'1 1.5
2018-Jun-10 13:31N 42°21' W 071°02'1 1.8
2018-Jun-10 13:00N 42°21' W 071°03'0 0.0
2018-Jun-10 12:30N 42°21' W 071°03'0 0.0
2018-Jun-10 03:06N 42°21' W 071°03'0 0.0
2018-Jun-10 03:00N 42°21' W 071°03'0 0.0
2018-Jun-10 02:30N 42°21' W 071°03'0 0.0
2018-Jun-10 02:00N 42°21' W 071°03'1 1.6
2018-Jun-10 01:31N 42°22' W 071°03'2 3.9
2018-Jun-10 01:00N 42°21' W 071°01'2 3.3
2018-Jun-10 00:31N 42°20' W 070°59'1 2.9
2018-Jun-10 00:00N 42°21' W 071°01'1 2.3
2018-Jun-09 23:31N 42°21' W 071°02'1 1.3
2018-Jun-09 23:00N 42°21' W 071°03'0 0.0
2018-Jun-09 22:30N 42°21' W 071°03'0 0.0
2018-Jun-09 22:00N 42°21' W 071°03'1 1.2
2018-Jun-09 21:31N 42°22' W 071°03'1 1.2
2018-Jun-09 21:00N 42°21' W 071°03'  
Track history (hours):
 
Tides and Currents Weather Stations Pressure Air Temp Water Temp Dewpoint Dewpoint Depression Visibility Wind Speed Wind Dir Waves Ship Positions

Freedom

Owner: MASSACHUSETTS BAY LINES INC, BOSTON, MA. More information available from US FCC via Universal Licensing System and Coast Guard Vessel Documentation Center.

Last reported at 2018-Jun-19 14:56 UTC. Time now 2018-Jun-19 20:02 UTC.
Position N 42°21' W 071°03'.

Type: Passenger vessel. MMSI: 367377389.

Date/timePositionNaut miles runAvg speedWind from/ knotsBaromVisibWave heightAir tempDewpointWater temp
2018-Jun-19 14:56N 42°21' W 071°03'1 2.1
2018-Jun-19 14:31N 42°22' W 071°03'1 1.8
2018-Jun-19 14:00N 42°21' W 071°03'0 0.0
2018-Jun-19 13:30N 42°21' W 071°03'0 0.0
2018-Jun-19 13:01N 42°21' W 071°03'0 0.0
2018-Jun-19 12:30N 42°21' W 071°03'0 0.0
2018-Jun-18 00:59N 42°21' W 071°03'0 0.9
2018-Jun-18 00:30N 42°22' W 071°03'1 1.8
2018-Jun-18 00:00N 42°23' W 071°03'2 4.0
2018-Jun-17 23:30N 42°21' W 071°01'1 2.7
2018-Jun-17 23:00N 42°21' W 071°03'0 0.0
2018-Jun-17 22:30N 42°21' W 071°03'0 0.0
2018-Jun-17 22:00N 42°21' W 071°03'0 0.0
2018-Jun-17 14:14N 42°21' W 071°03'1 2.7
2018-Jun-17 14:00N 42°22' W 071°03'1 1.5
2018-Jun-17 13:30N 42°21' W 071°02'0 0.9
2018-Jun-17 13:00N 42°21' W 071°03'0 0.0
2018-Jun-17 12:30N 42°21' W 071°03'0 0.0
2018-Jun-17 04:53N 42°21' W 071°03'0 0.0
2018-Jun-17 04:30N 42°21' W 071°03'0 0.1
2018-Jun-17 04:00N 42°21' W 071°03'2 3.9
2018-Jun-17 03:30N 42°21' W 071°01'2 3.2
2018-Jun-17 03:00N 42°20' W 070°59'3 5.2
2018-Jun-17 02:30N 42°21' W 071°02'1 1.9
2018-Jun-17 02:00N 42°21' W 071°03'0 0.0
2018-Jun-17 01:30N 42°21' W 071°03'0 0.0
2018-Jun-17 01:00N 42°21' W 071°03'0 0.0
2018-Jun-17 00:30N 42°21' W 071°03'0 0.0
2018-Jun-17 00:00N 42°21' W 071°03'0 0.0
2018-Jun-16 23:31N 42°21' W 071°03'0 0.0
2018-Jun-16 23:00N 42°21' W 071°03'0 0.0
2018-Jun-16 22:31N 42°21' W 071°03'0 0.0
2018-Jun-16 22:00N 42°21' W 071°03'1 1.1
2018-Jun-16 21:30N 42°22' W 071°02'2 4.5
2018-Jun-16 21:00N 42°20' W 070°60'0 0.4
2018-Jun-16 20:30N 42°20' W 070°60'3 5.3
2018-Jun-16 20:00N 42°21' W 071°03'0 0.0
2018-Jun-16 19:30N 42°21' W 071°03'0 0.0
2018-Jun-16 19:00N 42°21' W 071°03'0 0.0
2018-Jun-16 18:30N 42°21' W 071°03'2 3.8
2018-Jun-16 18:00N 42°21' W 071°01'1 1.6
2018-Jun-16 17:30N 42°20' W 070°60'3 5.3
2018-Jun-16 17:00N 42°21' W 071°03'0 0.0
2018-Jun-16 16:30N 42°21' W 071°03'0 0.0
2018-Jun-16 16:00N 42°21' W 071°03'0 0.0
2018-Jun-16 15:30N 42°21' W 071°03'0 0.0
2018-Jun-16 15:00N 42°21' W 071°03'0 0.0
2018-Jun-16 14:30N 42°21' W 071°03'1 1.9
2018-Jun-16 14:00N 42°22' W 071°03'1 1.9
2018-Jun-16 13:31N 42°21' W 071°03'0 0.0
2018-Jun-16 13:00N 42°21' W 071°03'0 0.0
2018-Jun-16 05:00N 42°21' W 071°03'0 0.0
2018-Jun-16 04:30N 42°21' W 071°03'0 0.0
2018-Jun-16 04:00N 42°21' W 071°03'1 1.4
2018-Jun-16 03:30N 42°21' W 071°02'2 4.4
2018-Jun-16 03:01N 42°20' W 070°60'1 2.2
2018-Jun-16 02:31N 42°19' W 071°01'2 4.1
2018-Jun-16 02:00N 42°20' W 070°58'2 4.3
2018-Jun-16 01:30N 42°21' W 071°01'2 3.1
2018-Jun-16 01:00N 42°21' W 071°03'0 0.0
2018-Jun-16 00:30N 42°21' W 071°03'0 0.0
2018-Jun-16 00:00N 42°21' W 071°03'0 0.0
2018-Jun-15 23:30N 42°21' W 071°03'0 0.0
2018-Jun-15 23:00N 42°21' W 071°03'2 3.5
2018-Jun-15 22:31N 42°23' W 071°03'0 0.6
2018-Jun-15 22:00N 42°23' W 071°02'1 1.9
2018-Jun-15 21:30N 42°23' W 071°03'1 2.7
2018-Jun-15 21:01N 42°22' W 071°03'1 2.1
2018-Jun-15 20:31N 42°21' W 071°02'2 4.1
2018-Jun-15 20:00N 42°23' W 071°02'0 0.0
2018-Jun-15 19:30N 42°23' W 071°02'0 0.0
2018-Jun-15 19:00N 42°23' W 071°02'2 3.9
2018-Jun-15 18:30N 42°21' W 071°03'0 0.0
2018-Jun-15 18:00N 42°21' W 071°03'1 2.9
2018-Jun-15 17:31N 42°23' W 071°03'0 0.1
2018-Jun-15 17:00N 42°23' W 071°03'0 0.5
2018-Jun-15 16:31N 42°23' W 071°03'1 0.1
2018-Jun-15 02:54N 42°21' W 071°03'0 0.0
2018-Jun-15 02:30N 42°21' W 071°03'1 2.8
2018-Jun-15 02:00N 42°21' W 071°01'1 1.8
2018-Jun-15 01:31N 42°20' W 071°00'2 4.3
2018-Jun-15 01:00N 42°21' W 071°03'0 0.8
2018-Jun-15 00:30N 42°22' W 071°03'1 1.1
2018-Jun-15 00:00N 42°22' W 071°03'2 4.4
2018-Jun-14 23:30N 42°21' W 071°01'2 3.7
2018-Jun-14 23:00N 42°21' W 071°03'0 0.6
2018-Jun-14 22:30N 42°21' W 071°03'1 1.0
2018-Jun-14 22:01N 42°21' W 071°02'1 1.6
2018-Jun-14 21:30N 42°21' W 071°03'0 0.0
2018-Jun-14 21:01N 42°21' W 071°03'0 0.0
2018-Jun-14 20:31N 42°21' W 071°03'0 0.0
2018-Jun-14 20:00N 42°21' W 071°03'0 0.0
2018-Jun-14 19:30N 42°21' W 071°03'0 0.0
2018-Jun-14 14:38N 42°21' W 071°03'0 1.9
2018-Jun-14 14:30N 42°21' W 071°03'0 1.0
2018-Jun-14 14:00N 42°21' W 071°02'1 1.4
2018-Jun-14 13:30N 42°21' W 071°03'0 0.0
2018-Jun-14 13:00N 42°21' W 071°03'0 0.0
2018-Jun-14 12:31N 42°21' W 071°03'0 0.0
2018-Jun-13 14:19N 42°21' W 071°03'1 2.2
2018-Jun-13 14:00N 42°22' W 071°03'1 1.4
2018-Jun-13 13:30N 42°21' W 071°03'0 0.1
2018-Jun-13 13:00N 42°21' W 071°03'0 0.0
2018-Jun-13 12:30N 42°21' W 071°03'0 0.0
2018-Jun-11 18:42N 42°21' W 071°03'0 0.4
2018-Jun-11 18:30N 42°21' W 071°03'0 0.1
2018-Jun-11 18:00N 42°21' W 071°03'4 8.6
2018-Jun-11 17:30N 42°18' W 070°59'4 8.2
2018-Jun-11 17:01N 42°15' W 070°55'1 2.3
2018-Jun-11 16:30N 42°16' W 070°56'3 5.8
2018-Jun-11 16:00N 42°19' W 070°56'0 0.9
2018-Jun-11 15:30N 42°20' W 070°56'0 0.0
2018-Jun-11 15:00N 42°20' W 070°56'0 0.0
2018-Jun-11 14:31N 42°20' W 070°56'0 0.9
2018-Jun-11 14:00N 42°19' W 070°56'3 6.0
2018-Jun-11 13:30N 42°16' W 070°56'1 2.1
2018-Jun-11 13:00N 42°15' W 070°55'0 0.0
2018-Jun-11 12:30N 42°15' W 070°55'1 1.3
2018-Jun-11 12:00N 42°16' W 070°55'5 9.1
2018-Jun-11 11:30N 42°19' W 070°60'3 6.7
2018-Jun-11 11:00N 42°21' W 071°03'0 0.0
2018-Jun-11 10:30N 42°21' W 071°03'0 0.0
2018-Jun-11 02:16N 42°21' W 071°03'0 0.0
2018-Jun-11 02:00N 42°21' W 071°03'1 1.4
2018-Jun-11 01:31N 42°21' W 071°02'1 2.0
2018-Jun-11 01:01N 42°22' W 071°03'3 6.0
2018-Jun-11 00:30N 42°20' W 070°60'0 0.6
2018-Jun-11 00:01N 42°20' W 070°59'2 4.5
2018-Jun-10 23:30N 42°21' W 071°02'1 1.6
2018-Jun-10 23:01N 42°21' W 071°03'0 0.0
2018-Jun-10 22:30N 42°21' W 071°03'0 0.0
2018-Jun-10 22:00N 42°21' W 071°03'0 0.0
2018-Jun-10 14:07N 42°21' W 071°03'1 1.5
2018-Jun-10 13:31N 42°21' W 071°02'1 1.8
2018-Jun-10 13:00N 42°21' W 071°03'0 0.0
2018-Jun-10 12:30N 42°21' W 071°03'0 0.0
2018-Jun-10 03:06N 42°21' W 071°03'0 0.0
2018-Jun-10 03:00N 42°21' W 071°03'0 0.0
2018-Jun-10 02:30N 42°21' W 071°03'0 0.0
2018-Jun-10 02:00N 42°21' W 071°03'1 1.6
2018-Jun-10 01:31N 42°22' W 071°03'2 3.9
2018-Jun-10 01:00N 42°21' W 071°01'2 3.3
2018-Jun-10 00:31N 42°20' W 070°59'1 2.9
2018-Jun-10 00:00N 42°21' W 071°01'1 2.3
2018-Jun-09 23:31N 42°21' W 071°02'1 1.3
2018-Jun-09 23:00N 42°21' W 071°03'0 0.0
2018-Jun-09 22:30N 42°21' W 071°03'0 0.0
2018-Jun-09 22:00N 42°21' W 071°03'1 1.2
2018-Jun-09 21:31N 42°22' W 071°03'1 1.2
2018-Jun-09 21:00N 42°21' W 071°03'  

Dump ship's entire track history